sensor_id;sensor_type;location;lat;lon;timestamp;P1;durP1;ratioP1;P2;durP2;ratioP2
2021;SDS011;1015;49.756;6.994;2022-11-20T00:02:19;8.57;;;6.30;;
2021;SDS011;1015;49.756;6.994;2022-11-20T00:04:46;7.37;;;5.90;;
2021;SDS011;1015;49.756;6.994;2022-11-20T00:07:13;11.20;;;6.70;;
2021;SDS011;1015;49.756;6.994;2022-11-20T00:09:40;8.30;;;6.13;;
2021;SDS011;1015;49.756;6.994;2022-11-20T00:12:07;7.63;;;5.53;;
2021;SDS011;1015;49.756;6.994;2022-11-20T00:14:36;8.70;;;5.63;;
2021;SDS011;1015;49.756;6.994;2022-11-20T00:17:03;9.23;;;6.00;;
2021;SDS011;1015;49.756;6.994;2022-11-20T00:19:30;7.60;;;5.50;;
2021;SDS011;1015;49.756;6.994;2022-11-20T00:21:56;8.50;;;6.10;;
2021;SDS011;1015;49.756;6.994;2022-11-20T00:24:23;9.07;;;6.20;;
2021;SDS011;1015;49.756;6.994;2022-11-20T00:26:51;8.00;;;5.73;;
2021;SDS011;1015;49.756;6.994;2022-11-20T00:29:18;9.27;;;6.37;;
2021;SDS011;1015;49.756;6.994;2022-11-20T00:31:46;7.00;;;5.30;;
2021;SDS011;1015;49.756;6.994;2022-11-20T00:34:13;9.03;;;5.47;;
2021;SDS011;1015;49.756;6.994;2022-11-20T00:36:40;7.17;;;5.00;;
2021;SDS011;1015;49.756;6.994;2022-11-20T00:39:07;7.60;;;5.60;;
2021;SDS011;1015;49.756;6.994;2022-11-20T00:41:34;7.37;;;5.43;;
2021;SDS011;1015;49.756;6.994;2022-11-20T00:44:01;9.93;;;4.80;;
2021;SDS011;1015;49.756;6.994;2022-11-20T00:46:28;6.30;;;4.93;;
2021;SDS011;1015;49.756;6.994;2022-11-20T00:48:57;10.13;;;4.93;;
2021;SDS011;1015;49.756;6.994;2022-11-20T00:51:25;6.53;;;4.67;;
2021;SDS011;1015;49.756;6.994;2022-11-20T00:53:54;6.33;;;4.60;;
2021;SDS011;1015;49.756;6.994;2022-11-20T00:56:21;5.47;;;4.40;;
2021;SDS011;1015;49.756;6.994;2022-11-20T00:58:48;6.03;;;4.00;;
2021;SDS011;1015;49.756;6.994;2022-11-20T01:01:17;5.97;;;4.27;;
2021;SDS011;1015;49.756;6.994;2022-11-20T01:03:46;6.47;;;4.60;;
2021;SDS011;1015;49.756;6.994;2022-11-20T01:06:16;5.07;;;4.33;;
2021;SDS011;1015;49.756;6.994;2022-11-20T01:08:44;5.53;;;4.37;;
2021;SDS011;1015;49.756;6.994;2022-11-20T01:11:13;5.93;;;4.60;;
2021;SDS011;1015;49.756;6.994;2022-11-20T01:13:43;6.30;;;4.27;;
2021;SDS011;1015;49.756;6.994;2022-11-20T01:16:12;6.90;;;5.00;;
2021;SDS011;1015;49.756;6.994;2022-11-20T01:18:41;7.23;;;5.10;;
2021;SDS011;1015;49.756;6.994;2022-11-20T01:21:11;8.37;;;6.77;;
2021;SDS011;1015;49.756;6.994;2022-11-20T01:23:41;11.27;;;5.80;;
2021;SDS011;1015;49.756;6.994;2022-11-20T01:26:10;9.00;;;6.33;;
2021;SDS011;1015;49.756;6.994;2022-11-20T01:28:39;9.07;;;6.90;;
2021;SDS011;1015;49.756;6.994;2022-11-20T01:31:11;10.70;;;7.63;;
2021;SDS011;1015;49.756;6.994;2022-11-20T01:33:39;12.33;;;7.60;;
2021;SDS011;1015;49.756;6.994;2022-11-20T01:36:07;10.30;;;7.30;;
2021;SDS011;1015;49.756;6.994;2022-11-20T01:38:35;11.20;;;7.23;;
2021;SDS011;1015;49.756;6.994;2022-11-20T01:41:03;11.40;;;7.30;;
2021;SDS011;1015;49.756;6.994;2022-11-20T01:43:31;9.67;;;6.40;;
2021;SDS011;1015;49.756;6.994;2022-11-20T01:46:01;8.30;;;6.13;;
2021;SDS011;1015;49.756;6.994;2022-11-20T01:48:32;6.83;;;4.90;;
2021;SDS011;1015;49.756;6.994;2022-11-20T01:51:03;6.87;;;5.33;;
2021;SDS011;1015;49.756;6.994;2022-11-20T01:53:32;7.40;;;4.67;;
2021;SDS011;1015;49.756;6.994;2022-11-20T01:56:04;6.20;;;4.80;;
2021;SDS011;1015;49.756;6.994;2022-11-20T01:58:36;5.33;;;4.40;;
2021;SDS011;1015;49.756;6.994;2022-11-20T02:01:07;5.40;;;3.77;;
2021;SDS011;1015;49.756;6.994;2022-11-20T02:03:34;5.67;;;4.10;;
2021;SDS011;1015;49.756;6.994;2022-11-20T02:06:04;4.30;;;3.80;;
2021;SDS011;1015;49.756;6.994;2022-11-20T02:08:36;4.83;;;4.00;;
2021;SDS011;1015;49.756;6.994;2022-11-20T02:11:06;3.90;;;3.40;;
2021;SDS011;1015;49.756;6.994;2022-11-20T02:13:33;3.83;;;3.20;;
2021;SDS011;1015;49.756;6.994;2022-11-20T02:16:09;3.47;;;2.97;;
2021;SDS011;1015;49.756;6.994;2022-11-20T02:18:38;6.53;;;4.07;;
2021;SDS011;1015;49.756;6.994;2022-11-20T02:21:07;3.23;;;2.93;;
2021;SDS011;1015;49.756;6.994;2022-11-20T02:23:39;2.93;;;2.40;;
2021;SDS011;1015;49.756;6.994;2022-11-20T02:26:21;3.70;;;2.90;;
2021;SDS011;1015;49.756;6.994;2022-11-20T02:28:50;3.63;;;2.67;;
2021;SDS011;1015;49.756;6.994;2022-11-20T02:31:17;4.27;;;3.10;;
2021;SDS011;1015;49.756;6.994;2022-11-20T02:33:44;3.00;;;2.70;;
2021;SDS011;1015;49.756;6.994;2022-11-20T02:36:11;3.93;;;3.53;;
2021;SDS011;1015;49.756;6.994;2022-11-20T02:38:42;4.00;;;3.37;;
2021;SDS011;1015;49.756;6.994;2022-11-20T02:41:11;5.43;;;3.80;;
2021;SDS011;1015;49.756;6.994;2022-11-20T02:43:38;4.90;;;4.30;;
2021;SDS011;1015;49.756;6.994;2022-11-20T02:46:06;5.93;;;4.93;;
2021;SDS011;1015;49.756;6.994;2022-11-20T02:48:33;6.03;;;4.73;;
2021;SDS011;1015;49.756;6.994;2022-11-20T02:51:00;7.83;;;4.87;;
2021;SDS011;1015;49.756;6.994;2022-11-20T02:53:27;7.13;;;5.50;;
2021;SDS011;1015;49.756;6.994;2022-11-20T02:55:54;7.00;;;5.20;;
2021;SDS011;1015;49.756;6.994;2022-11-20T02:58:23;7.00;;;5.27;;
2021;SDS011;1015;49.756;6.994;2022-11-20T03:00:50;8.80;;;6.67;;
2021;SDS011;1015;49.756;6.994;2022-11-20T03:03:18;9.30;;;6.03;;
2021;SDS011;1015;49.756;6.994;2022-11-20T03:05:45;7.73;;;4.87;;
2021;SDS011;1015;49.756;6.994;2022-11-20T03:08:12;7.63;;;5.67;;
2021;SDS011;1015;49.756;6.994;2022-11-20T03:10:39;7.23;;;5.33;;
2021;SDS011;1015;49.756;6.994;2022-11-20T03:13:06;6.27;;;4.60;;
2021;SDS011;1015;49.756;6.994;2022-11-20T03:15:35;6.57;;;4.43;;
2021;SDS011;1015;49.756;6.994;2022-11-20T03:18:02;5.47;;;4.40;;
2021;SDS011;1015;49.756;6.994;2022-11-20T03:20:29;5.77;;;4.10;;
2021;SDS011;1015;49.756;6.994;2022-11-20T03:22:58;5.13;;;4.27;;
2021;SDS011;1015;49.756;6.994;2022-11-20T03:25:25;5.50;;;4.00;;
2021;SDS011;1015;49.756;6.994;2022-11-20T03:27:52;7.20;;;4.83;;
2021;SDS011;1015;49.756;6.994;2022-11-20T03:30:20;5.60;;;4.70;;
2021;SDS011;1015;49.756;6.994;2022-11-20T03:32:48;6.10;;;4.70;;
2021;SDS011;1015;49.756;6.994;2022-11-20T03:35:18;6.23;;;5.00;;
2021;SDS011;1015;49.756;6.994;2022-11-20T03:37:45;6.73;;;4.97;;
2021;SDS011;1015;49.756;6.994;2022-11-20T03:40:13;7.17;;;5.13;;
2021;SDS011;1015;49.756;6.994;2022-11-20T03:42:40;7.00;;;4.20;;
2021;SDS011;1015;49.756;6.994;2022-11-20T03:45:13;5.30;;;4.00;;
2021;SDS011;1015;49.756;6.994;2022-11-20T03:47:42;5.17;;;4.23;;
2021;SDS011;1015;49.756;6.994;2022-11-20T03:50:11;6.70;;;4.83;;
2021;SDS011;1015;49.756;6.994;2022-11-20T03:52:39;5.40;;;4.40;;
2021;SDS011;1015;49.756;6.994;2022-11-20T03:55:06;6.07;;;4.83;;
2021;SDS011;1015;49.756;6.994;2022-11-20T03:57:34;6.67;;;5.00;;
2021;SDS011;1015;49.756;6.994;2022-11-20T04:00:01;5.70;;;5.00;;
2021;SDS011;1015;49.756;6.994;2022-11-20T04:02:29;6.63;;;5.13;;
2021;SDS011;1015;49.756;6.994;2022-11-20T04:04:56;6.20;;;5.00;;
2021;SDS011;1015;49.756;6.994;2022-11-20T04:07:24;7.40;;;5.63;;
2021;SDS011;1015;49.756;6.994;2022-11-20T04:09:51;6.43;;;5.10;;
2021;SDS011;1015;49.756;6.994;2022-11-20T04:12:18;7.83;;;5.77;;
2021;SDS011;1015;49.756;6.994;2022-11-20T04:14:45;7.90;;;5.87;;
2021;SDS011;1015;49.756;6.994;2022-11-20T04:17:12;7.00;;;5.90;;
2021;SDS011;1015;49.756;6.994;2022-11-20T04:19:39;7.70;;;5.73;;
2021;SDS011;1015;49.756;6.994;2022-11-20T04:22:06;6.87;;;5.97;;
2021;SDS011;1015;49.756;6.994;2022-11-20T04:24:35;8.93;;;6.07;;
2021;SDS011;1015;49.756;6.994;2022-11-20T04:27:01;8.07;;;6.30;;
2021;SDS011;1015;49.756;6.994;2022-11-20T04:29:28;8.10;;;6.10;;
2021;SDS011;1015;49.756;6.994;2022-11-20T04:31:55;9.77;;;6.60;;
2021;SDS011;1015;49.756;6.994;2022-11-20T04:34:22;8.07;;;6.00;;
2021;SDS011;1015;49.756;6.994;2022-11-20T04:36:49;8.30;;;6.10;;
2021;SDS011;1015;49.756;6.994;2022-11-20T04:39:16;9.17;;;6.87;;
2021;SDS011;1015;49.756;6.994;2022-11-20T04:41:45;11.23;;;7.47;;
2021;SDS011;1015;49.756;6.994;2022-11-20T04:44:11;13.17;;;7.27;;
2021;SDS011;1015;49.756;6.994;2022-11-20T04:46:39;10.40;;;7.17;;
2021;SDS011;1015;49.756;6.994;2022-11-20T04:49:07;11.97;;;7.93;;
2021;SDS011;1015;49.756;6.994;2022-11-20T04:51:35;11.23;;;7.73;;
2021;SDS011;1015;49.756;6.994;2022-11-20T04:54:02;10.30;;;7.33;;
2021;SDS011;1015;49.756;6.994;2022-11-20T04:56:29;10.53;;;7.63;;
2021;SDS011;1015;49.756;6.994;2022-11-20T04:59:00;10.93;;;7.27;;
2021;SDS011;1015;49.756;6.994;2022-11-20T05:01:28;9.40;;;7.23;;
2021;SDS011;1015;49.756;6.994;2022-11-20T05:03:55;9.13;;;7.10;;
2021;SDS011;1015;49.756;6.994;2022-11-20T05:06:22;9.60;;;7.33;;
2021;SDS011;1015;49.756;6.994;2022-11-20T05:08:49;10.50;;;7.40;;
2021;SDS011;1015;49.756;6.994;2022-11-20T05:11:17;11.50;;;7.70;;
2021;SDS011;1015;49.756;6.994;2022-11-20T05:13:45;9.27;;;6.93;;
2021;SDS011;1015;49.756;6.994;2022-11-20T05:16:15;11.10;;;7.97;;
2021;SDS011;1015;49.756;6.994;2022-11-20T05:18:43;11.30;;;8.30;;
2021;SDS011;1015;49.756;6.994;2022-11-20T05:21:11;9.90;;;7.17;;
2021;SDS011;1015;49.756;6.994;2022-11-20T05:23:39;10.47;;;7.83;;
2021;SDS011;1015;49.756;6.994;2022-11-20T05:26:07;10.53;;;7.80;;
2021;SDS011;1015;49.756;6.994;2022-11-20T05:28:38;13.37;;;8.07;;
2021;SDS011;1015;49.756;6.994;2022-11-20T05:31:06;8.80;;;7.30;;
2021;SDS011;1015;49.756;6.994;2022-11-20T05:33:35;8.73;;;7.30;;
2021;SDS011;1015;49.756;6.994;2022-11-20T05:36:02;11.73;;;8.00;;
2021;SDS011;1015;49.756;6.994;2022-11-20T05:38:30;9.97;;;7.23;;
2021;SDS011;1015;49.756;6.994;2022-11-20T05:41:02;12.13;;;7.77;;
2021;SDS011;1015;49.756;6.994;2022-11-20T05:43:31;13.03;;;7.73;;
2021;SDS011;1015;49.756;6.994;2022-11-20T05:45:59;10.80;;;7.53;;
2021;SDS011;1015;49.756;6.994;2022-11-20T05:48:26;9.90;;;7.37;;
2021;SDS011;1015;49.756;6.994;2022-11-20T05:50:56;11.10;;;8.03;;
2021;SDS011;1015;49.756;6.994;2022-11-20T05:53:23;11.00;;;7.70;;
2021;SDS011;1015;49.756;6.994;2022-11-20T05:55:55;9.87;;;7.17;;
2021;SDS011;1015;49.756;6.994;2022-11-20T05:58:23;11.63;;;7.40;;
2021;SDS011;1015;49.756;6.994;2022-11-20T06:00:50;11.17;;;7.87;;
2021;SDS011;1015;49.756;6.994;2022-11-20T06:03:17;12.33;;;7.70;;
2021;SDS011;1015;49.756;6.994;2022-11-20T06:05:44;13.63;;;7.73;;
2021;SDS011;1015;49.756;6.994;2022-11-20T06:08:13;11.80;;;7.50;;
2021;SDS011;1015;49.756;6.994;2022-11-20T06:10:40;11.10;;;8.17;;
2021;SDS011;1015;49.756;6.994;2022-11-20T06:13:07;10.37;;;7.50;;
2021;SDS011;1015;49.756;6.994;2022-11-20T06:15:34;11.93;;;7.67;;
2021;SDS011;1015;49.756;6.994;2022-11-20T06:18:01;13.40;;;7.80;;
2021;SDS011;1015;49.756;6.994;2022-11-20T06:20:28;10.83;;;7.97;;
2021;SDS011;1015;49.756;6.994;2022-11-20T06:22:55;12.10;;;8.20;;
2021;SDS011;1015;49.756;6.994;2022-11-20T06:25:23;11.63;;;8.10;;
2021;SDS011;1015;49.756;6.994;2022-11-20T06:27:50;11.63;;;8.30;;
2021;SDS011;1015;49.756;6.994;2022-11-20T06:30:18;12.97;;;7.90;;
2021;SDS011;1015;49.756;6.994;2022-11-20T06:32:45;13.10;;;8.40;;
2021;SDS011;1015;49.756;6.994;2022-11-20T06:35:12;13.60;;;8.80;;
2021;SDS011;1015;49.756;6.994;2022-11-20T06:37:39;11.97;;;8.27;;
2021;SDS011;1015;49.756;6.994;2022-11-20T06:40:07;14.27;;;8.20;;
2021;SDS011;1015;49.756;6.994;2022-11-20T06:42:36;13.73;;;8.03;;
2021;SDS011;1015;49.756;6.994;2022-11-20T06:45:04;11.07;;;8.00;;
2021;SDS011;1015;49.756;6.994;2022-11-20T06:47:31;11.20;;;8.27;;
2021;SDS011;1015;49.756;6.994;2022-11-20T06:49:58;12.30;;;7.77;;
2021;SDS011;1015;49.756;6.994;2022-11-20T06:52:25;12.40;;;8.40;;
2021;SDS011;1015;49.756;6.994;2022-11-20T06:54:52;13.00;;;8.03;;
2021;SDS011;1015;49.756;6.994;2022-11-20T06:57:19;16.40;;;9.20;;
2021;SDS011;1015;49.756;6.994;2022-11-20T06:59:48;13.47;;;8.67;;
2021;SDS011;1015;49.756;6.994;2022-11-20T07:02:14;12.33;;;8.47;;
2021;SDS011;1015;49.756;6.994;2022-11-20T07:04:42;13.63;;;8.70;;
2021;SDS011;1015;49.756;6.994;2022-11-20T07:07:09;11.60;;;8.27;;
2021;SDS011;1015;49.756;6.994;2022-11-20T07:09:36;14.23;;;8.50;;
2021;SDS011;1015;49.756;6.994;2022-11-20T07:12:04;12.83;;;8.10;;
2021;SDS011;1015;49.756;6.994;2022-11-20T07:14:31;13.93;;;9.10;;
2021;SDS011;1015;49.756;6.994;2022-11-20T07:17:00;14.13;;;9.10;;
2021;SDS011;1015;49.756;6.994;2022-11-20T07:19:26;14.00;;;8.60;;
2021;SDS011;1015;49.756;6.994;2022-11-20T07:21:54;14.60;;;9.47;;
2021;SDS011;1015;49.756;6.994;2022-11-20T07:24:21;14.60;;;8.83;;
2021;SDS011;1015;49.756;6.994;2022-11-20T07:26:48;15.40;;;10.00;;
2021;SDS011;1015;49.756;6.994;2022-11-20T07:29:15;14.43;;;9.60;;
2021;SDS011;1015;49.756;6.994;2022-11-20T07:31:42;13.53;;;9.37;;
2021;SDS011;1015;49.756;6.994;2022-11-20T07:34:11;14.30;;;9.53;;
2021;SDS011;1015;49.756;6.994;2022-11-20T07:36:38;16.40;;;10.70;;
2021;SDS011;1015;49.756;6.994;2022-11-20T07:39:05;17.90;;;10.90;;
2021;SDS011;1015;49.756;6.994;2022-11-20T07:41:32;15.57;;;10.27;;
2021;SDS011;1015;49.756;6.994;2022-11-20T07:43:59;15.53;;;10.20;;
2021;SDS011;1015;49.756;6.994;2022-11-20T07:46:27;14.43;;;9.43;;
2021;SDS011;1015;49.756;6.994;2022-11-20T07:48:54;15.43;;;9.77;;
2021;SDS011;1015;49.756;6.994;2022-11-20T07:51:22;16.07;;;10.07;;
2021;SDS011;1015;49.756;6.994;2022-11-20T07:53:50;16.57;;;9.93;;
2021;SDS011;1015;49.756;6.994;2022-11-20T07:56:18;18.00;;;11.13;;
2021;SDS011;1015;49.756;6.994;2022-11-20T07:58:45;15.70;;;10.30;;
2021;SDS011;1015;49.756;6.994;2022-11-20T08:01:12;14.50;;;9.10;;
2021;SDS011;1015;49.756;6.994;2022-11-20T08:03:39;20.70;;;10.50;;
2021;SDS011;1015;49.756;6.994;2022-11-20T08:06:06;15.17;;;9.50;;
2021;SDS011;1015;49.756;6.994;2022-11-20T08:08:35;17.43;;;10.33;;
2021;SDS011;1015;49.756;6.994;2022-11-20T08:11:04;15.30;;;10.10;;
2021;SDS011;1015;49.756;6.994;2022-11-20T08:13:48;19.17;;;10.50;;
2021;SDS011;1015;49.756;6.994;2022-11-20T08:16:33;14.23;;;9.37;;
2021;SDS011;1015;49.756;6.994;2022-11-20T08:19:00;17.83;;;10.50;;
2021;SDS011;1015;49.756;6.994;2022-11-20T08:21:27;13.23;;;9.37;;
2021;SDS011;1015;49.756;6.994;2022-11-20T08:23:55;15.97;;;8.73;;
2021;SDS011;1015;49.756;6.994;2022-11-20T08:26:23;15.17;;;9.40;;
2021;SDS011;1015;49.756;6.994;2022-11-20T08:28:52;16.87;;;9.80;;
2021;SDS011;1015;49.756;6.994;2022-11-20T08:31:21;14.13;;;8.60;;
2021;SDS011;1015;49.756;6.994;2022-11-20T08:33:48;16.37;;;9.63;;
2021;SDS011;1015;49.756;6.994;2022-11-20T08:36:15;13.67;;;8.03;;
2021;SDS011;1015;49.756;6.994;2022-11-20T08:38:46;15.20;;;8.90;;
2021;SDS011;1015;49.756;6.994;2022-11-20T08:41:15;13.33;;;8.27;;
2021;SDS011;1015;49.756;6.994;2022-11-20T08:43:55;10.87;;;7.70;;
2021;SDS011;1015;49.756;6.994;2022-11-20T08:46:24;15.17;;;8.77;;
2021;SDS011;1015;49.756;6.994;2022-11-20T08:48:51;13.20;;;8.50;;
2021;SDS011;1015;49.756;6.994;2022-11-20T08:51:19;15.10;;;8.73;;
2021;SDS011;1015;49.756;6.994;2022-11-20T08:53:47;13.83;;;9.13;;
2021;SDS011;1015;49.756;6.994;2022-11-20T08:56:16;15.37;;;9.53;;
2021;SDS011;1015;49.756;6.994;2022-11-20T08:58:43;17.60;;;9.70;;
2021;SDS011;1015;49.756;6.994;2022-11-20T09:01:10;16.67;;;8.93;;
2021;SDS011;1015;49.756;6.994;2022-11-20T09:03:37;15.20;;;9.70;;
2021;SDS011;1015;49.756;6.994;2022-11-20T09:06:05;17.73;;;10.60;;
2021;SDS011;1015;49.756;6.994;2022-11-20T09:08:33;16.93;;;9.67;;
2021;SDS011;1015;49.756;6.994;2022-11-20T09:11:01;17.03;;;11.10;;
2021;SDS011;1015;49.756;6.994;2022-11-20T09:13:31;19.33;;;9.87;;
2021;SDS011;1015;49.756;6.994;2022-11-20T09:16:00;16.00;;;10.23;;
2021;SDS011;1015;49.756;6.994;2022-11-20T09:18:29;14.80;;;10.00;;
2021;SDS011;1015;49.756;6.994;2022-11-20T09:20:57;15.13;;;9.37;;
2021;SDS011;1015;49.756;6.994;2022-11-20T09:23:25;13.53;;;9.47;;
2021;SDS011;1015;49.756;6.994;2022-11-20T09:25:52;11.93;;;8.53;;
2021;SDS011;1015;49.756;6.994;2022-11-20T09:28:20;15.30;;;9.30;;
2021;SDS011;1015;49.756;6.994;2022-11-20T09:30:49;12.90;;;9.37;;
2021;SDS011;1015;49.756;6.994;2022-11-20T09:33:16;14.70;;;9.23;;
2021;SDS011;1015;49.756;6.994;2022-11-20T09:35:43;13.13;;;8.47;;
2021;SDS011;1015;49.756;6.994;2022-11-20T09:38:11;12.70;;;8.13;;
2021;SDS011;1015;49.756;6.994;2022-11-20T09:40:40;11.33;;;6.90;;
2021;SDS011;1015;49.756;6.994;2022-11-20T09:43:12;11.30;;;6.27;;
2021;SDS011;1015;49.756;6.994;2022-11-20T09:46:03;7.40;;;6.30;;
2021;SDS011;1015;49.756;6.994;2022-11-20T09:48:48;6.60;;;5.50;;
2021;SDS011;1015;49.756;6.994;2022-11-20T09:51:27;7.50;;;5.43;;
2021;SDS011;1015;49.756;6.994;2022-11-20T09:54:06;7.00;;;5.33;;
2021;SDS011;1015;49.756;6.994;2022-11-20T09:56:40;7.23;;;4.60;;
2021;SDS011;1015;49.756;6.994;2022-11-20T09:59:14;5.73;;;4.20;;
2021;SDS011;1015;49.756;6.994;2022-11-20T10:01:54;7.33;;;4.40;;
2021;SDS011;1015;49.756;6.994;2022-11-20T10:04:23;6.00;;;4.20;;
2021;SDS011;1015;49.756;6.994;2022-11-20T10:06:51;6.90;;;5.00;;
2021;SDS011;1015;49.756;6.994;2022-11-20T10:09:27;8.20;;;5.20;;
2021;SDS011;1015;49.756;6.994;2022-11-20T10:12:00;8.40;;;5.57;;
2021;SDS011;1015;49.756;6.994;2022-11-20T10:14:41;7.33;;;5.43;;
2021;SDS011;1015;49.756;6.994;2022-11-20T10:17:24;8.57;;;5.83;;
2021;SDS011;1015;49.756;6.994;2022-11-20T10:20:07;10.97;;;6.33;;
2021;SDS011;1015;49.756;6.994;2022-11-20T10:22:47;10.97;;;5.90;;
2021;SDS011;1015;49.756;6.994;2022-11-20T10:25:26;6.97;;;5.90;;
2021;SDS011;1015;49.756;6.994;2022-11-20T10:28:06;8.67;;;5.77;;
2021;SDS011;1015;49.756;6.994;2022-11-20T10:30:43;5.87;;;4.83;;
2021;SDS011;1015;49.756;6.994;2022-11-20T10:33:15;7.00;;;5.00;;
2021;SDS011;1015;49.756;6.994;2022-11-20T10:35:44;6.80;;;4.97;;
2021;SDS011;1015;49.756;6.994;2022-11-20T10:38:18;3.70;;;3.37;;
2021;SDS011;1015;49.756;6.994;2022-11-20T10:40:51;6.20;;;4.00;;
2021;SDS011;1015;49.756;6.994;2022-11-20T10:43:43;6.70;;;3.47;;
2021;SDS011;1015;49.756;6.994;2022-11-20T10:46:13;4.00;;;3.50;;
2021;SDS011;1015;49.756;6.994;2022-11-20T10:48:44;7.10;;;4.50;;
2021;SDS011;1015;49.756;6.994;2022-11-20T10:51:14;5.90;;;3.60;;
2021;SDS011;1015;49.756;6.994;2022-11-20T10:53:51;5.67;;;3.37;;
2021;SDS011;1015;49.756;6.994;2022-11-20T10:56:30;5.60;;;3.60;;
2021;SDS011;1015;49.756;6.994;2022-11-20T11:01:59;4.20;;;3.80;;
2021;SDS011;1015;49.756;6.994;2022-11-20T11:04:32;5.60;;;3.63;;
2021;SDS011;1015;49.756;6.994;2022-11-20T11:07:05;7.37;;;4.30;;
2021;SDS011;1015;49.756;6.994;2022-11-20T11:09:39;5.40;;;4.40;;
2021;SDS011;1015;49.756;6.994;2022-11-20T11:12:09;8.30;;;4.10;;
2021;SDS011;1015;49.756;6.994;2022-11-20T11:14:47;4.50;;;4.00;;
2021;SDS011;1015;49.756;6.994;2022-11-20T11:17:19;6.70;;;4.60;;
2021;SDS011;1015;49.756;6.994;2022-11-20T11:22:33;5.63;;;4.40;;
2021;SDS011;1015;49.756;6.994;2022-11-20T11:25:17;5.30;;;4.33;;
2021;SDS011;1015;49.756;6.994;2022-11-20T11:27:47;4.30;;;3.90;;
2021;SDS011;1015;49.756;6.994;2022-11-20T11:30:16;10.20;;;5.30;;
2021;SDS011;1015;49.756;6.994;2022-11-20T11:32:44;6.10;;;3.93;;
2021;SDS011;1015;49.756;6.994;2022-11-20T11:35:20;5.00;;;4.00;;
2021;SDS011;1015;49.756;6.994;2022-11-20T11:37:49;6.10;;;3.40;;
2021;SDS011;1015;49.756;6.994;2022-11-20T11:40:19;6.63;;;3.53;;
2021;SDS011;1015;49.756;6.994;2022-11-20T11:42:50;7.20;;;3.37;;
2021;SDS011;1015;49.756;6.994;2022-11-20T11:45:20;7.07;;;3.40;;
2021;SDS011;1015;49.756;6.994;2022-11-20T11:47:47;5.33;;;2.77;;
2021;SDS011;1015;49.756;6.994;2022-11-20T11:50:17;5.03;;;2.90;;
2021;SDS011;1015;49.756;6.994;2022-11-20T11:52:54;4.40;;;3.37;;
2021;SDS011;1015;49.756;6.994;2022-11-20T11:55:29;5.80;;;2.70;;
2021;SDS011;1015;49.756;6.994;2022-11-20T11:58:11;4.47;;;3.77;;
2021;SDS011;1015;49.756;6.994;2022-11-20T12:00:49;5.73;;;3.10;;
2021;SDS011;1015;49.756;6.994;2022-11-20T12:03:22;5.67;;;3.13;;
2021;SDS011;1015;49.756;6.994;2022-11-20T12:05:55;3.47;;;2.70;;
2021;SDS011;1015;49.756;6.994;2022-11-20T12:08:27;3.93;;;2.90;;
2021;SDS011;1015;49.756;6.994;2022-11-20T12:11:00;4.80;;;3.10;;
2021;SDS011;1015;49.756;6.994;2022-11-20T12:13:36;4.57;;;3.00;;
2021;SDS011;1015;49.756;6.994;2022-11-20T12:16:10;5.00;;;3.10;;
2021;SDS011;1015;49.756;6.994;2022-11-20T12:18:40;2.57;;;2.37;;
2021;SDS011;1015;49.756;6.994;2022-11-20T12:21:17;4.10;;;2.73;;
2021;SDS011;1015;49.756;6.994;2022-11-20T12:23:53;4.80;;;2.83;;
2021;SDS011;1015;49.756;6.994;2022-11-20T12:26:33;6.30;;;2.87;;
2021;SDS011;1015;49.756;6.994;2022-11-20T12:29:15;5.43;;;3.00;;
2021;SDS011;1015;49.756;6.994;2022-11-20T12:31:54;4.27;;;2.90;;
2021;SDS011;1015;49.756;6.994;2022-11-20T12:34:41;4.60;;;2.77;;
2021;SDS011;1015;49.756;6.994;2022-11-20T12:37:17;6.67;;;2.70;;
2021;SDS011;1015;49.756;6.994;2022-11-20T12:39:56;3.77;;;2.37;;
2021;SDS011;1015;49.756;6.994;2022-11-20T12:42:36;3.33;;;2.40;;
2021;SDS011;1015;49.756;6.994;2022-11-20T12:45:42;3.10;;;2.00;;
2021;SDS011;1015;49.756;6.994;2022-11-20T12:48:31;3.47;;;2.60;;
2021;SDS011;1015;49.756;6.994;2022-11-20T12:51:28;5.10;;;2.63;;
2021;SDS011;1015;49.756;6.994;2022-11-20T12:54:27;7.17;;;2.87;;
2021;SDS011;1015;49.756;6.994;2022-11-20T12:57:15;2.53;;;2.03;;
2021;SDS011;1015;49.756;6.994;2022-11-20T12:59:51;3.70;;;2.73;;
2021;SDS011;1015;49.756;6.994;2022-11-20T13:02:27;7.50;;;2.37;;
2021;SDS011;1015;49.756;6.994;2022-11-20T13:05:05;3.13;;;2.20;;
2021;SDS011;1015;49.756;6.994;2022-11-20T13:07:43;5.70;;;2.70;;
2021;SDS011;1015;49.756;6.994;2022-11-20T13:10:16;4.33;;;2.40;;
2021;SDS011;1015;49.756;6.994;2022-11-20T13:12:49;2.57;;;2.30;;
2021;SDS011;1015;49.756;6.994;2022-11-20T13:15:26;2.73;;;2.20;;
2021;SDS011;1015;49.756;6.994;2022-11-20T13:18:02;5.07;;;3.00;;
2021;SDS011;1015;49.756;6.994;2022-11-20T13:20:34;2.83;;;2.13;;
2021;SDS011;1015;49.756;6.994;2022-11-20T13:23:06;2.80;;;2.30;;
2021;SDS011;1015;49.756;6.994;2022-11-20T13:25:36;2.70;;;2.13;;
2021;SDS011;1015;49.756;6.994;2022-11-20T13:28:05;2.57;;;2.30;;
2021;SDS011;1015;49.756;6.994;2022-11-20T13:30:55;3.47;;;2.30;;
2021;SDS011;1015;49.756;6.994;2022-11-20T13:33:25;6.00;;;2.00;;
2021;SDS011;1015;49.756;6.994;2022-11-20T13:35:55;4.67;;;2.20;;
2021;SDS011;1015;49.756;6.994;2022-11-20T13:38:24;3.23;;;1.90;;
2021;SDS011;1015;49.756;6.994;2022-11-20T13:40:53;1.80;;;1.70;;
2021;SDS011;1015;49.756;6.994;2022-11-20T13:43:22;2.63;;;1.90;;
2021;SDS011;1015;49.756;6.994;2022-11-20T13:45:57;3.10;;;2.10;;
2021;SDS011;1015;49.756;6.994;2022-11-20T13:48:26;2.13;;;1.60;;
2021;SDS011;1015;49.756;6.994;2022-11-20T13:51:08;2.80;;;1.90;;
2021;SDS011;1015;49.756;6.994;2022-11-20T13:56:43;1.73;;;1.63;;
2021;SDS011;1015;49.756;6.994;2022-11-20T13:59:26;2.30;;;1.70;;
2021;SDS011;1015;49.756;6.994;2022-11-20T14:02:00;2.70;;;1.77;;
2021;SDS011;1015;49.756;6.994;2022-11-20T14:04:28;4.17;;;1.90;;
2021;SDS011;1015;49.756;6.994;2022-11-20T14:07:01;3.10;;;2.20;;
2021;SDS011;1015;49.756;6.994;2022-11-20T14:09:31;4.27;;;2.13;;
2021;SDS011;1015;49.756;6.994;2022-11-20T14:12:01;3.40;;;1.90;;
2021;SDS011;1015;49.756;6.994;2022-11-20T14:14:29;3.40;;;2.00;;
2021;SDS011;1015;49.756;6.994;2022-11-20T14:17:05;5.00;;;2.50;;
2021;SDS011;1015;49.756;6.994;2022-11-20T14:19:32;5.03;;;1.90;;
2021;SDS011;1015;49.756;6.994;2022-11-20T14:22:09;3.73;;;2.03;;
2021;SDS011;1015;49.756;6.994;2022-11-20T14:24:42;4.23;;;2.47;;
2021;SDS011;1015;49.756;6.994;2022-11-20T14:27:14;3.63;;;2.00;;
2021;SDS011;1015;49.756;6.994;2022-11-20T14:29:44;5.10;;;2.47;;
2021;SDS011;1015;49.756;6.994;2022-11-20T14:32:14;3.00;;;2.70;;
2021;SDS011;1015;49.756;6.994;2022-11-20T14:34:43;3.53;;;2.43;;
2021;SDS011;1015;49.756;6.994;2022-11-20T14:37:12;8.07;;;2.60;;
2021;SDS011;1015;49.756;6.994;2022-11-20T14:39:47;2.90;;;2.23;;
2021;SDS011;1015;49.756;6.994;2022-11-20T14:42:20;3.80;;;2.30;;
2021;SDS011;1015;49.756;6.994;2022-11-20T14:44:48;3.20;;;2.30;;
2021;SDS011;1015;49.756;6.994;2022-11-20T14:47:17;4.70;;;2.23;;
2021;SDS011;1015;49.756;6.994;2022-11-20T14:49:47;2.87;;;2.10;;
2021;SDS011;1015;49.756;6.994;2022-11-20T14:52:16;3.10;;;2.20;;
2021;SDS011;1015;49.756;6.994;2022-11-20T14:54:46;3.90;;;2.30;;
2021;SDS011;1015;49.756;6.994;2022-11-20T14:57:22;2.67;;;1.90;;
2021;SDS011;1015;49.756;6.994;2022-11-20T14:59:51;2.47;;;2.27;;
2021;SDS011;1015;49.756;6.994;2022-11-20T15:02:29;4.50;;;2.67;;
2021;SDS011;1015;49.756;6.994;2022-11-20T15:04:57;3.70;;;2.33;;
2021;SDS011;1015;49.756;6.994;2022-11-20T15:07:27;3.70;;;2.30;;
2021;SDS011;1015;49.756;6.994;2022-11-20T15:10:02;3.30;;;2.30;;
2021;SDS011;1015;49.756;6.994;2022-11-20T15:12:32;2.90;;;2.30;;
2021;SDS011;1015;49.756;6.994;2022-11-20T15:15:02;5.73;;;2.53;;
2021;SDS011;1015;49.756;6.994;2022-11-20T15:17:30;4.90;;;2.47;;
2021;SDS011;1015;49.756;6.994;2022-11-20T15:20:00;5.90;;;2.90;;
2021;SDS011;1015;49.756;6.994;2022-11-20T15:22:30;5.43;;;2.90;;
2021;SDS011;1015;49.756;6.994;2022-11-20T15:24:57;2.53;;;2.20;;
2021;SDS011;1015;49.756;6.994;2022-11-20T15:27:24;4.87;;;2.43;;
2021;SDS011;1015;49.756;6.994;2022-11-20T15:29:52;4.03;;;2.57;;
2021;SDS011;1015;49.756;6.994;2022-11-20T15:32:19;5.70;;;2.50;;
2021;SDS011;1015;49.756;6.994;2022-11-20T15:34:46;4.13;;;3.03;;
2021;SDS011;1015;49.756;6.994;2022-11-20T15:37:13;2.30;;;2.10;;
2021;SDS011;1015;49.756;6.994;2022-11-20T15:39:40;2.73;;;2.37;;